Derby, KS (67037)

4:56 PM CDT on September 03, 2015 (GMT -0500)
Spring Ridge | | Change Station
CLOSE
Current Station
Personal Weather Station
Location: Derby, KS
Elevation: 1316 ft
Nearby Weather Stations

Elev 1316 ft 37.56 °N, 97.23 °W | Updated 3 seconds ago

Clear
Clear
91.7 °F
Feels Like 95 °F
N
6.0
Wind Variable Wind from SSE
Gusts 15.0 mph

Today
High -- | Low -- °F
--% Chance of Precip.
Yesterday
High -- | Low -- °F
Precip. -- in
7:00 AM 7:55 PM
Waning Gibbous, 66% visible
Pressure 29.83 in
Visibility 10.0 miles
Clouds Clear
Heat Index 95 °F
Dew Point 67 °F
Humidity 44%
Rainfall 0.00 in
Snow Depth Not available.
UV 6 out of 12
Pollen 11.70 out of 12
Air Quality Not available.
Flu Activity Not available.
METAR KIAB 032058Z AUTO 15018G23KT 10SM CLR 33/19 A2987 RMK AO2 PK WND 14026/34 SLP102 T03310185 57017 $
Pressure 29.83 in
Visibility 10.0 miles
Clouds Clear
Heat Index 95 °F
Dew Point 67 °F
Humidity 44%
Rainfall 0.00 in
Snow Depth Not available.
UV 6 out of 12
Pollen 11.70 out of 12
Air Quality Not available.
Flu Activity Not available.
METAR KIAB 032058Z AUTO 15018G23KT 10SM CLR 33/19 A2987 RMK AO2 PK WND 14026/34 SLP102 T03310185 57017 $

10-Day Weather Forecast

×

Almanac

Astronomy

Sep. 03, 2015 Rise Set
Actual Time
Civil Twilight
Nautical Twilight
Astronomical Twilight
Moon
Length of Visible Light
Length of Day
Tomorrow will be .
, % of the Moon is Illuminated

Today's Extremes

State Highs State Lows

Community

WunderPhotos

Upload Photos

1,852,045 photos uploaded!

WunderBlogs® & News

Nearby

Air Quality

  Air Quality AQ Index Pollutant
Not available.

Snow Depth

Station Depth Elevation

Earthquake Activity

City Distance Mag. Time & Date
Minimum magnitude displayed is 2.5.

Coastal Water Temperatures

Place Temperature

Stations

Nearby Weather Stations

Station Location Temp. Windchill Dew Point Humidity Wind Precip. Elev Updated Type